Terminal Aerodrome Forecast
Issued by NWS

Home | Current Version | Previous Version | Text Only | Print | Product List | Glossary On
Versions: 1 2 3 4 5 6 7 8 9 10 11 12 13 14 15 16 17
470
FTAK31 PAJN 031140
TAFAWG
TAF
PAWG 031140Z 0312/0412 26005KT P6SM -SHRA BKN015 OVC025
     FM031700 28004KT P6SM VCSH BKN030 OVC050
     FM032100 30005KT P6SM -SHRA BKN045 OVC060
     FM040200 24005KT P6SM -SHRA BKN040 OVC060
     FM040600 14005KT P6SM VCSH OVC070
      AMD LTD TO CLD VIS AND WIND 0312/0315=

USA.gov is the U.S. government's official web portal to all federal, state and local government web resources and services.